createdAt,value
2019-03-27T00:01:37.248Z,0.70
2019-03-27T00:04:14.235Z,0.70
2019-03-27T00:06:49.804Z,0.70
2019-03-27T00:09:30.857Z,0.70
2019-03-27T00:12:04.876Z,0.80
2019-03-27T00:14:41.327Z,0.70
2019-03-27T00:17:14.024Z,0.80
2019-03-27T00:19:50.184Z,0.80
2019-03-27T00:22:27.404Z,0.80
2019-03-27T00:25:02.788Z,0.80
2019-03-27T00:27:38.165Z,0.80
2019-03-27T00:30:13.025Z,0.90
2019-03-27T00:32:47.884Z,0.90
2019-03-27T00:35:19.970Z,0.90
2019-03-27T00:37:55.022Z,0.90
2019-03-27T00:40:30.638Z,0.90
2019-03-27T00:43:04.962Z,0.90
2019-03-27T00:45:40.608Z,0.90
2019-03-27T00:48:16.427Z,0.90
2019-03-27T00:50:47.926Z,0.90
2019-03-27T00:53:21.959Z,0.90
2019-03-27T00:56:00.741Z,1.00
2019-03-27T00:58:33.781Z,1.00
2019-03-27T01:01:55.235Z,1.00
2019-03-27T01:05:05.375Z,0.90
2019-03-27T01:08:16.683Z,1.00
2019-03-27T05:46:29.478Z,2.00
2019-03-27T05:49:01.567Z,2.10
2019-03-27T05:51:34.659Z,2.20
2019-03-27T05:54:07.622Z,2.20
2019-03-27T05:56:43.392Z,2.10
2019-03-27T05:59:20.415Z,2.20
2019-03-27T06:01:55.361Z,2.30
2019-03-27T06:04:31.965Z,2.30
2019-03-27T06:07:06.398Z,2.30
2019-03-27T06:09:39.232Z,2.30
2019-03-27T06:12:12.199Z,2.40
2019-03-27T06:14:45.948Z,2.40
2019-03-27T06:17:21.311Z,2.30
2019-03-27T06:19:58.538Z,2.30
2019-03-27T06:22:30.785Z,2.30
2019-03-27T06:25:02.178Z,2.40
2019-03-27T06:27:32.496Z,2.40
2019-03-27T06:30:04.478Z,2.60
2019-03-27T06:32:38.300Z,2.70
2019-03-27T06:35:13.222Z,2.80
2019-03-27T06:37:47.486Z,2.90
2019-03-27T06:40:21.186Z,3.00
2019-03-27T06:42:58.499Z,3.00
2019-03-27T06:45:30.621Z,3.10
2019-03-27T06:48:05.374Z,3.30
2019-03-27T06:50:39.746Z,3.40
2019-03-27T06:53:12.109Z,3.60
2019-03-27T06:55:47.557Z,3.70
2019-03-27T06:58:20.931Z,3.80
2019-03-27T07:00:56.770Z,3.90
2019-03-27T07:03:35.276Z,4.00
2019-03-27T07:06:09.594Z,3.90
2019-03-27T07:08:44.904Z,3.80
2019-03-27T07:11:20.678Z,3.70
2019-03-27T07:13:54.911Z,3.70
2019-03-27T07:16:31.483Z,3.60
2019-03-27T07:19:03.567Z,3.50
2019-03-27T07:21:34.175Z,3.50
2019-03-27T07:24:05.607Z,3.40
2019-03-27T07:26:36.659Z,3.40
2019-03-27T07:29:09.275Z,3.40
2019-03-27T07:31:43.202Z,3.50
2019-03-27T07:34:16.228Z,3.50
2019-03-27T07:36:49.765Z,3.60
2019-03-27T07:39:27.229Z,3.60
2019-03-27T07:42:05.253Z,3.70
2019-03-27T07:44:39.548Z,3.70
2019-03-27T07:47:16.222Z,3.80
2019-03-27T07:49:51.207Z,3.90
2019-03-27T07:52:24.747Z,4.00
2019-03-27T07:55:01.090Z,4.10
2019-03-27T07:57:33.615Z,4.10
2019-03-27T08:00:08.399Z,4.10
2019-03-27T08:02:44.287Z,4.20
2019-03-27T08:05:16.158Z,4.20
2019-03-27T08:07:50.747Z,4.30
2019-03-27T08:10:25.254Z,4.40
2019-03-27T08:12:59.103Z,4.40
2019-03-27T08:15:33.407Z,4.50
2019-03-27T08:18:04.846Z,4.60
2019-03-27T08:20:42.395Z,4.60
2019-03-27T08:23:13.507Z,4.70
2019-03-27T08:25:44.752Z,4.70
2019-03-27T08:28:17.375Z,4.70
2019-03-27T08:30:50.941Z,4.80
2019-03-27T08:33:27.454Z,4.80
2019-03-27T08:36:01.476Z,4.90
2019-03-27T08:38:33.326Z,5.00
2019-03-27T08:41:03.635Z,5.10
2019-03-27T08:43:38.020Z,5.10
2019-03-27T08:46:11.471Z,5.10
2019-03-27T08:48:42.701Z,5.20
2019-03-27T08:51:16.095Z,5.20
2019-03-27T08:53:48.223Z,5.20
2019-03-27T08:56:19.019Z,5.20
2019-03-27T08:58:52.248Z,5.20
2019-03-27T09:01:26.354Z,5.20
2019-03-27T09:04:00.099Z,5.30
2019-03-27T09:06:33.886Z,5.40
2019-03-27T09:09:14.883Z,5.40
2019-03-27T09:22:36.031Z,5.60
2019-03-27T09:25:09.093Z,5.80
2019-03-27T09:27:43.135Z,6.00
2019-03-27T09:30:21.567Z,6.20
2019-03-27T09:32:53.624Z,6.40
2019-03-27T09:35:26.079Z,6.60
2019-03-27T09:37:58.093Z,6.80
2019-03-27T09:40:32.866Z,7.00
2019-03-27T09:43:10.719Z,7.10
2019-03-27T09:45:48.321Z,7.20
2019-03-27T09:48:23.715Z,7.10
2019-03-27T09:50:57.366Z,7.20
2019-03-27T09:53:34.502Z,7.20
2019-03-27T09:56:18.506Z,7.30
2019-03-27T09:58:43.835Z,7.40
2019-03-27T10:01:14.847Z,7.40
2019-03-27T10:03:50.210Z,7.60
2019-03-27T10:06:23.118Z,7.70
2019-03-27T10:08:57.511Z,7.80
2019-03-27T10:11:32.844Z,7.70
2019-03-27T10:14:08.448Z,7.70
2019-03-27T10:16:44.707Z,7.60
2019-03-27T10:19:24.063Z,7.50
2019-03-27T10:21:55.879Z,7.40
2019-03-27T10:24:29.206Z,7.50
2019-03-27T10:27:01.690Z,7.70
2019-03-27T10:29:35.806Z,7.80
2019-03-27T10:32:11.330Z,7.80
2019-03-27T10:34:45.907Z,7.80
2019-03-27T10:37:19.824Z,7.80
2019-03-27T10:39:55.999Z,7.90
2019-03-27T10:42:32.140Z,7.90
2019-03-27T10:45:08.735Z,8.00
2019-03-27T10:47:42.243Z,8.10
2019-03-27T10:50:18.151Z,8.20
2019-03-27T10:52:52.031Z,8.40
2019-03-27T10:55:34.386Z,8.40
2019-03-27T10:58:04.752Z,8.30
2019-03-27T11:00:35.022Z,8.20
2019-03-27T11:03:05.928Z,8.00
2019-03-27T11:05:37.127Z,8.00
2019-03-27T11:08:11.391Z,8.10
2019-03-27T11:10:41.947Z,8.00
2019-03-27T11:13:24.160Z,8.00
2019-03-27T11:15:57.854Z,8.00
2019-03-27T11:18:32.680Z,8.00
2019-03-27T11:21:05.091Z,8.10
2019-03-27T11:23:40.068Z,8.10
2019-03-27T11:26:12.221Z,8.10
2019-03-27T11:28:43.218Z,8.10
2019-03-27T11:31:19.751Z,8.20
2019-03-27T11:33:52.518Z,8.20
2019-03-27T11:36:26.725Z,8.20
2019-03-27T11:38:59.615Z,8.10
2019-03-27T11:41:30.075Z,8.10
2019-03-27T11:44:03.926Z,8.20
2019-03-27T11:46:38.692Z,8.20
2019-03-27T11:49:15.135Z,8.30
2019-03-27T11:51:45.914Z,8.40
2019-03-27T11:54:19.857Z,8.40
2019-03-27T11:56:51.742Z,8.50
2019-03-27T11:59:23.897Z,8.40
2019-03-27T12:01:55.120Z,8.40
2019-03-27T12:04:27.128Z,8.50
2019-03-27T12:06:58.171Z,8.60
2019-03-27T12:09:31.551Z,8.50
2019-03-27T12:12:04.997Z,8.60
2019-03-27T12:14:35.183Z,8.60
2019-03-27T12:17:09.892Z,8.70
2019-03-27T12:19:51.231Z,8.70
2019-03-27T12:22:27.521Z,8.70
2019-03-27T12:25:04.270Z,8.70
2019-03-27T12:27:39.110Z,8.80
2019-03-27T12:30:16.815Z,8.90
2019-03-27T12:32:52.096Z,8.90
2019-03-27T12:35:27.722Z,8.90
2019-03-27T12:38:04.270Z,9.00
2019-03-27T12:40:38.815Z,9.00
2019-03-27T12:43:11.086Z,8.90
2019-03-27T12:45:49.850Z,8.90
2019-03-27T12:48:25.031Z,9.00
2019-03-27T12:51:12.068Z,9.00
2019-03-27T12:53:39.460Z,9.00
2019-03-27T12:56:16.065Z,9.10
2019-03-27T12:58:47.314Z,9.20
2019-03-27T13:01:19.049Z,9.30
2019-03-27T13:03:53.215Z,9.20
2019-03-27T13:06:33.599Z,9.20
2019-03-27T13:09:08.899Z,9.20
2019-03-27T13:11:46.432Z,9.40
2019-03-27T13:14:19.192Z,9.40
2019-03-27T13:16:53.611Z,9.40
2019-03-27T13:19:30.979Z,9.40
2019-03-27T13:22:03.887Z,9.40
2019-03-27T13:24:39.683Z,9.40
2019-03-27T13:27:18.453Z,9.50
2019-03-27T13:29:52.011Z,9.50
2019-03-27T13:32:24.114Z,9.50
2019-03-27T13:34:58.503Z,9.50
2019-03-27T13:37:35.216Z,9.60
2019-03-27T13:40:12.263Z,9.60
2019-03-27T13:42:47.931Z,9.60
2019-03-27T13:45:23.308Z,9.60
2019-03-27T13:47:58.031Z,9.60
2019-03-27T13:50:29.758Z,9.60
2019-03-27T13:53:00.821Z,9.70
2019-03-27T13:55:35.051Z,9.70
2019-03-27T13:58:09.702Z,9.70
2019-03-27T14:00:40.758Z,9.70
2019-03-27T14:03:11.747Z,9.70
2019-03-27T14:05:45.448Z,9.70
2019-03-27T14:08:18.271Z,9.80
2019-03-27T14:10:52.519Z,9.80
2019-03-27T14:13:27.971Z,9.90
2019-03-27T14:16:02.597Z,10.00
2019-03-27T14:18:34.927Z,10.00
2019-03-27T14:21:05.173Z,10.10
2019-03-27T14:23:39.682Z,10.10
2019-03-27T14:26:10.623Z,10.20
2019-03-27T14:28:42.128Z,10.20
2019-03-27T14:31:14.826Z,10.10
2019-03-27T14:33:49.131Z,10.10
2019-03-27T14:36:24.402Z,10.10
2019-03-27T14:38:56.741Z,10.10
2019-03-27T14:41:31.295Z,10.20
2019-03-27T14:44:06.299Z,10.30
2019-03-27T14:46:40.620Z,10.40
2019-03-27T14:49:19.507Z,10.50
2019-03-27T14:52:07.332Z,10.50
2019-03-27T14:54:26.430Z,10.60
2019-03-27T14:56:59.655Z,10.60
2019-03-27T14:59:34.220Z,10.60
2019-03-27T15:02:10.591Z,10.70
2019-03-27T15:04:47.742Z,10.70
2019-03-27T15:07:23.119Z,10.80
2019-03-27T15:09:55.762Z,10.90
2019-03-27T15:12:27.276Z,11.00
2019-03-27T15:14:57.942Z,11.00
2019-03-27T15:17:30.487Z,11.00
2019-03-27T15:20:07.455Z,11.00
2019-03-27T15:22:39.427Z,10.90
2019-03-27T15:25:15.214Z,10.90
2019-03-27T15:27:46.282Z,10.90
2019-03-27T15:30:16.693Z,10.90
2019-03-27T15:33:14.337Z,10.90
2019-03-27T15:36:00.612Z,10.90
2019-03-27T15:38:32.085Z,11.00
2019-03-27T15:41:04.229Z,10.80
2019-03-27T15:43:35.459Z,10.80
2019-03-27T15:46:09.123Z,10.70
2019-03-27T15:48:53.707Z,10.60
2019-03-27T15:51:32.011Z,10.50
2019-03-27T15:54:07.425Z,10.40
2019-03-27T15:56:39.485Z,10.40
2019-03-27T15:59:14.089Z,10.30
2019-03-27T16:01:50.719Z,10.30
2019-03-27T16:04:27.839Z,10.30
2019-03-27T16:07:04.194Z,10.20
2019-03-27T16:09:37.366Z,10.20
2019-03-27T16:12:08.139Z,10.10
2019-03-27T16:14:41.611Z,10.10
2019-03-27T16:17:16.228Z,10.10
2019-03-27T16:19:50.496Z,10.00
2019-03-27T16:22:25.862Z,10.00
2019-03-27T16:25:01.249Z,9.90
2019-03-27T16:27:36.642Z,9.80
2019-03-27T16:30:12.134Z,9.70
2019-03-27T16:32:47.071Z,9.60
2019-03-27T16:35:19.599Z,9.50
2019-03-27T16:37:54.816Z,9.30
2019-03-27T16:41:00.675Z,9.20
2019-03-27T16:43:35.046Z,9.10
2019-03-27T16:46:07.545Z,9.00
2019-03-27T16:48:38.797Z,8.90
2019-03-27T16:51:14.335Z,8.90
2019-03-27T16:53:50.690Z,8.80
2019-03-27T16:56:25.392Z,8.70
2019-03-27T16:58:56.490Z,8.60
2019-03-27T17:01:27.346Z,8.50
2019-03-27T17:03:57.950Z,8.30
2019-03-27T17:06:29.538Z,8.10
2019-03-27T17:09:05.150Z,8.00
2019-03-27T17:11:38.304Z,7.80
2019-03-27T17:14:10.559Z,7.60
2019-03-27T17:16:44.327Z,7.50
2019-03-27T17:19:21.480Z,7.30
2019-03-27T17:21:56.853Z,7.10
2019-03-27T17:24:30.436Z,7.00
2019-03-27T17:27:00.802Z,6.80
2019-03-27T17:29:33.320Z,6.70
2019-03-27T17:32:05.984Z,6.50
2019-03-27T17:34:40.255Z,6.40
2019-03-27T17:37:11.211Z,6.20
2019-03-27T17:39:42.107Z,6.10
2019-03-27T17:42:13.759Z,5.90
2019-03-27T17:44:46.324Z,5.80
2019-03-27T17:47:22.728Z,5.60
2019-03-27T17:49:58.916Z,5.50
2019-03-27T17:52:31.935Z,5.40
2019-03-27T17:55:03.950Z,5.30
2019-03-27T17:57:40.514Z,5.10
2019-03-27T18:00:17.403Z,5.00
2019-03-27T18:02:51.642Z,4.90
2019-03-27T18:05:27.397Z,4.80
2019-03-27T18:08:05.607Z,4.70
2019-03-27T18:10:46.445Z,4.60
2019-03-27T18:13:25.986Z,4.40
2019-03-27T18:15:58.953Z,4.30
2019-03-27T18:18:30.245Z,4.20
2019-03-27T18:21:04.198Z,4.10
2019-03-27T18:26:08.961Z,3.90
2019-03-27T18:28:43.962Z,3.70
2019-03-27T18:31:15.215Z,3.70
2019-03-27T18:33:46.527Z,3.70
2019-03-27T18:36:18.239Z,3.60
2019-03-27T18:38:50.116Z,3.50
2019-03-27T18:41:23.952Z,3.30
2019-03-27T18:43:59.176Z,3.30
2019-03-27T18:46:42.727Z,3.20
2019-03-27T18:49:15.555Z,3.20
2019-03-27T18:51:46.417Z,3.20
2019-03-27T18:54:17.650Z,3.20
2019-03-27T18:56:49.465Z,3.20
2019-03-27T18:59:27.604Z,3.20
2019-03-27T19:02:00.391Z,3.10
2019-03-27T19:04:36.869Z,3.10
2019-03-27T19:07:14.497Z,3.10
2019-03-27T19:09:45.966Z,3.10
2019-03-27T19:12:18.570Z,3.20
2019-03-27T19:14:50.630Z,3.20
2019-03-27T19:17:23.848Z,3.20
2019-03-27T19:20:00.360Z,3.10
2019-03-27T19:22:37.677Z,3.10
2019-03-27T19:25:13.548Z,3.10
2019-03-27T19:27:49.870Z,3.00
2019-03-27T19:30:23.371Z,3.00
2019-03-27T19:32:55.424Z,3.10
2019-03-27T19:35:25.745Z,3.20
2019-03-27T19:37:59.651Z,3.20
2019-03-27T19:40:33.987Z,3.20
2019-03-27T19:43:09.502Z,3.30
2019-03-27T19:45:46.729Z,3.40
2019-03-27T19:48:24.641Z,3.50
2019-03-27T19:51:04.194Z,3.50
2019-03-27T19:53:37.925Z,3.50
2019-03-27T19:56:09.899Z,3.60
2019-03-27T19:58:45.251Z,3.70
2019-03-27T20:01:22.889Z,3.70
2019-03-27T20:03:57.030Z,3.80
2019-03-27T20:06:31.047Z,3.80
2019-03-27T20:09:05.611Z,3.90
2019-03-27T20:11:41.802Z,3.90
2019-03-27T20:14:17.460Z,3.90
2019-03-27T20:16:50.962Z,3.90
2019-03-27T20:19:22.565Z,3.90
2019-03-27T20:21:56.259Z,3.90
2019-03-27T20:24:40.474Z,3.90
2019-03-27T20:27:01.731Z,3.90
2019-03-27T20:29:32.871Z,3.90
2019-03-27T20:32:04.207Z,3.90
2019-03-27T20:34:35.218Z,3.90
2019-03-27T20:37:07.648Z,3.90
2019-03-27T20:39:42.928Z,3.90
2019-03-27T20:42:16.619Z,3.90
2019-03-27T20:44:55.111Z,3.90
2019-03-27T20:47:30.799Z,3.80
2019-03-27T20:50:06.143Z,3.80
2019-03-27T20:52:44.482Z,3.80
2019-03-27T20:55:30.054Z,3.80
2019-03-27T20:57:58.047Z,3.80
2019-03-27T21:00:30.855Z,3.80
2019-03-27T21:03:06.752Z,3.80
2019-03-27T21:05:41.950Z,3.70
2019-03-27T21:08:17.188Z,3.70
2019-03-27T21:10:55.029Z,3.70
2019-03-27T21:13:33.679Z,3.70
2019-03-27T21:16:10.273Z,3.60
2019-03-27T21:18:46.811Z,3.60
2019-03-27T21:21:23.333Z,3.50
2019-03-27T21:23:57.573Z,3.40
2019-03-27T21:26:35.272Z,3.40
2019-03-27T21:29:28.535Z,3.20
2019-03-27T21:31:58.759Z,3.10
2019-03-27T21:34:29.008Z,3.00
2019-03-27T21:37:02.755Z,2.80
2019-03-27T21:39:38.697Z,2.70
2019-03-27T21:42:12.671Z,2.60
2019-03-27T21:44:45.564Z,2.50
2019-03-27T21:47:19.466Z,2.50
2019-03-27T21:49:51.632Z,2.40
2019-03-27T21:52:24.438Z,2.30
2019-03-27T21:55:16.669Z,2.20
2019-03-27T21:57:42.697Z,2.10
2019-03-27T22:00:13.131Z,1.90
2019-03-27T22:03:04.734Z,1.80
2019-03-27T22:06:01.084Z,1.80
2019-03-27T22:08:56.081Z,1.60
2019-03-27T22:11:31.497Z,1.60
2019-03-27T22:14:07.903Z,1.60
2019-03-27T22:16:40.614Z,1.50
2019-03-27T22:19:17.071Z,1.40
2019-03-27T22:21:53.579Z,1.40
2019-03-27T22:24:28.771Z,1.40
2019-03-27T22:27:06.274Z,1.30
2019-03-27T22:29:40.303Z,1.30
2019-03-27T22:32:12.253Z,1.30
2019-03-27T22:34:45.347Z,1.20
2019-03-27T22:37:22.751Z,1.20
2019-03-27T22:39:54.119Z,1.20
2019-03-27T22:42:30.340Z,1.10
2019-03-27T22:45:09.543Z,1.00
2019-03-27T22:47:43.753Z,1.00
2019-03-27T22:50:16.447Z,0.90
2019-03-27T22:52:50.754Z,0.90
2019-03-27T22:55:20.976Z,0.80
2019-03-27T22:57:52.313Z,0.80
2019-03-27T23:00:33.219Z,0.80
2019-03-27T23:03:17.767Z,0.70
2019-03-27T23:05:46.315Z,0.70
2019-03-27T23:08:20.358Z,0.70
2019-03-27T23:10:54.898Z,0.60
2019-03-27T23:13:30.590Z,0.60
2019-03-27T23:16:04.650Z,0.50
2019-03-27T23:18:36.574Z,0.50
2019-03-27T23:21:11.456Z,0.50
2019-03-27T23:23:46.694Z,0.50
2019-03-27T23:26:21.608Z,0.40
2019-03-27T23:28:55.274Z,0.40
2019-03-27T23:31:27.913Z,0.40
2019-03-27T23:34:00.538Z,0.40
2019-03-27T23:36:35.889Z,0.40
2019-03-27T23:39:11.270Z,0.30
2019-03-27T23:41:43.319Z,0.20
2019-03-27T23:44:18.734Z,0.20
2019-03-27T23:46:52.370Z,0.10
2019-03-27T23:49:29.697Z,0.00
2019-03-27T23:52:03.015Z,0.00
2019-03-27T23:54:44.643Z,0.00
2019-03-27T23:57:17.678Z,-0.10
2019-03-27T23:59:57.415Z,-0.10
